Time;durP1;ratioP1;P1;durP2;ratioP2;P2;SDS_P1;SDS_P2;PMS_P1;PMS_P2;Temp;Humidity;BMP_temperature;BMP_pressure;BME280_temperature;BME280_humidity;BME280_pressure;Samples;Min_cycle;Max_cycle;Signal;HPM_P1;HPM_P2
2021/09/20 00:00:10;;;;;;;12.90;9.25;;;;;;;;;;5107397;27;20404;-86
2021/09/20 00:02:36;;;;;;;11.35;9.38;;;;;;;;;;5108337;28;20408;-87
2021/09/20 00:05:06;;;;;;;11.88;9.50;;;;;;;;;;5108370;27;20407;-88
2021/09/20 00:07:33;;;;;;;10.38;9.07;;;;;;;;;;5111847;27;20403;-89
2021/09/20 00:10:00;;;;;;;14.48;9.68;;;;;;;;;;5116206;28;20767;-88
2021/09/20 00:12:27;;;;;;;12.98;9.55;;;;;;;;;;5104619;28;20390;-89
2021/09/20 00:14:54;;;;;;;12.77;9.02;;;;;;;;;;5115643;27;20400;-87
2021/09/20 00:17:20;;;;;;;11.18;8.95;;;;;;;;;;5115287;27;20901;-87
2021/09/20 00:19:47;;;;;;;11.00;8.70;;;;;;;;;;5104718;28;20884;-86
2021/09/20 00:22:16;;;;;;;13.63;9.23;;;;;;;;;;5116948;27;20766;-87
2021/09/20 00:24:42;;;;;;;13.88;9.32;;;;;;;;;;5106920;28;20407;-87
2021/09/20 00:27:10;;;;;;;10.10;8.90;;;;;;;;;;5115502;28;20395;-86
2021/09/20 00:29:37;;;;;;;12.02;9.15;;;;;;;;;;5116898;27;20410;-87
2021/09/20 00:32:05;;;;;;;10.93;9.13;;;;;;;;;;5115411;28;20390;-86
2021/09/20 00:34:32;;;;;;;13.50;9.32;;;;;;;;;;5110844;28;20396;-87
2021/09/20 00:36:59;;;;;;;11.50;8.95;;;;;;;;;;5113862;27;20394;-86
2021/09/20 00:39:27;;;;;;;11.43;8.98;;;;;;;;;;5115603;28;20432;-89
2021/09/20 00:41:54;;;;;;;11.30;9.32;;;;;;;;;;5115233;28;20406;-87
2021/09/20 00:44:21;;;;;;;11.27;8.98;;;;;;;;;;5109788;27;20398;-87
2021/09/20 00:46:48;;;;;;;11.85;9.32;;;;;;;;;;5115605;28;20513;-87
2021/09/20 00:49:15;;;;;;;10.18;9.10;;;;;;;;;;5112098;28;20394;-87
2021/09/20 00:51:42;;;;;;;13.93;9.73;;;;;;;;;;5108832;27;20424;-88
2021/09/20 00:54:09;;;;;;;11.03;8.80;;;;;;;;;;5109142;27;20412;-87
2021/09/20 00:56:37;;;;;;;10.55;8.55;;;;;;;;;;5113799;27;20404;-88
2021/09/20 00:59:06;;;;;;;11.73;8.77;;;;;;;;;;5105085;27;20779;-87
2021/09/20 01:01:33;;;;;;;10.73;8.50;;;;;;;;;;5115640;27;20981;-88
2021/09/20 01:04:00;;;;;;;10.80;8.88;;;;;;;;;;5116471;27;20396;-88
2021/09/20 01:06:27;;;;;;;11.48;8.60;;;;;;;;;;5115100;27;20477;-88
2021/09/20 01:08:54;;;;;;;10.65;8.70;;;;;;;;;;5114597;27;20401;-87
2021/09/20 01:11:21;;;;;;;11.23;8.30;;;;;;;;;;5117459;27;20420;-87
2021/09/20 01:13:50;;;;;;;10.48;8.48;;;;;;;;;;5117389;27;20393;-87
2021/09/20 01:16:16;;;;;;;9.43;8.23;;;;;;;;;;5118619;27;20388;-87
2021/09/20 01:18:43;;;;;;;10.30;8.37;;;;;;;;;;5117842;27;20936;-88
2021/09/20 01:21:11;;;;;;;9.97;7.80;;;;;;;;;;5116389;27;20409;-89
2021/09/20 01:23:39;;;;;;;11.27;7.72;;;;;;;;;;5115151;27;20751;-87
2021/09/20 01:26:06;;;;;;;10.00;8.43;;;;;;;;;;5117173;27;20404;-88
2021/09/20 01:28:33;;;;;;;8.85;7.97;;;;;;;;;;5116512;27;20394;-88
2021/09/20 01:31:00;;;;;;;13.25;8.60;;;;;;;;;;5119409;27;20413;-88
2021/09/20 01:33:27;;;;;;;11.07;8.43;;;;;;;;;;5116486;27;21117;-87
2021/09/20 01:35:54;;;;;;;12.93;8.57;;;;;;;;;;5119317;27;20404;-88
2021/09/20 01:38:21;;;;;;;12.05;8.70;;;;;;;;;;5117324;27;20803;-87
2021/09/20 01:40:49;;;;;;;11.65;8.82;;;;;;;;;;5115861;27;20391;-87
2021/09/20 01:43:17;;;;;;;9.40;8.27;;;;;;;;;;5110831;27;20397;-88
2021/09/20 01:45:46;;;;;;;9.82;8.10;;;;;;;;;;5112084;27;20410;-87
2021/09/20 01:48:13;;;;;;;10.25;8.50;;;;;;;;;;5113751;27;20862;-87
2021/09/20 01:50:40;;;;;;;11.13;9.00;;;;;;;;;;5113676;27;20423;-88
2021/09/20 01:53:07;;;;;;;10.17;8.30;;;;;;;;;;5119504;27;20404;-88
2021/09/20 01:55:34;;;;;;;10.65;8.77;;;;;;;;;;5114420;27;20794;-88
2021/09/20 01:58:02;;;;;;;12.57;9.20;;;;;;;;;;5100597;27;20407;-88
2021/09/20 02:00:29;;;;;;;9.83;8.47;;;;;;;;;;5113204;27;20886;-89
2021/09/20 02:02:56;;;;;;;11.43;8.70;;;;;;;;;;5090560;27;20748;-88
2021/09/20 02:05:23;;;;;;;11.45;8.65;;;;;;;;;;5087612;28;20392;-87
2021/09/20 02:07:50;;;;;;;9.50;8.20;;;;;;;;;;5102252;28;20406;-88
2021/09/20 02:10:18;;;;;;;10.40;7.65;;;;;;;;;;5098771;28;20419;-87
2021/09/20 02:12:46;;;;;;;9.13;8.18;;;;;;;;;;5091263;28;20399;-87
2021/09/20 02:15:14;;;;;;;9.30;8.30;;;;;;;;;;5095868;28;20434;-88
2021/09/20 02:17:41;;;;;;;9.00;8.10;;;;;;;;;;5103497;28;20406;-88
2021/09/20 02:20:09;;;;;;;12.80;7.95;;;;;;;;;;5092944;28;20408;-88
2021/09/20 02:22:36;;;;;;;10.57;7.97;;;;;;;;;;5089031;28;20415;-88
2021/09/20 02:25:07;;;;;;;11.68;8.07;;;;;;;;;;5097425;28;20408;-88
2021/09/20 02:27:34;;;;;;;9.83;8.03;;;;;;;;;;5097838;28;20412;-88
2021/09/20 02:30:04;;;;;;;10.27;7.80;;;;;;;;;;5090718;28;20455;-88
2021/09/20 02:32:32;;;;;;;11.35;7.85;;;;;;;;;;5098875;28;20392;-87
2021/09/20 02:34:59;;;;;;;11.90;9.00;;;;;;;;;;5099655;28;20394;-87
2021/09/20 02:37:26;;;;;;;10.82;8.43;;;;;;;;;;5100850;28;20889;-88
2021/09/20 02:39:53;;;;;;;10.77;8.20;;;;;;;;;;5095736;28;20406;-87
2021/09/20 02:42:20;;;;;;;9.77;7.72;;;;;;;;;;5089760;28;20409;-88
2021/09/20 02:44:47;;;;;;;10.68;7.68;;;;;;;;;;5086604;28;20400;-88
2021/09/20 02:47:15;;;;;;;11.02;7.47;;;;;;;;;;5099263;28;20455;-87
2021/09/20 02:49:43;;;;;;;11.27;7.30;;;;;;;;;;5091547;28;20402;-88
2021/09/20 02:52:10;;;;;;;11.68;6.80;;;;;;;;;;5095148;28;20420;-88
2021/09/20 02:54:37;;;;;;;9.48;6.68;;;;;;;;;;5086476;28;20411;-87
2021/09/20 02:57:04;;;;;;;9.85;6.93;;;;;;;;;;5086247;28;20890;-87
2021/09/20 02:59:31;;;;;;;8.23;6.65;;;;;;;;;;5099018;28;20406;-87
2021/09/20 03:01:58;;;;;;;8.98;6.47;;;;;;;;;;5086097;28;20406;-89
2021/09/20 03:04:25;;;;;;;7.38;6.43;;;;;;;;;;5097507;28;20403;-87
2021/09/20 03:06:53;;;;;;;9.32;6.55;;;;;;;;;;5085985;28;20400;-88
2021/09/20 03:09:20;;;;;;;7.70;6.40;;;;;;;;;;5098136;28;20409;-87
2021/09/20 03:11:47;;;;;;;9.68;6.85;;;;;;;;;;5085526;28;20478;-87
2021/09/20 03:14:13;;;;;;;8.85;6.28;;;;;;;;;;5096288;28;20402;-88
2021/09/20 03:16:40;;;;;;;9.55;6.00;;;;;;;;;;5087454;28;20394;-87
2021/09/20 03:19:08;;;;;;;8.20;6.00;;;;;;;;;;5086216;28;20389;-87
2021/09/20 03:21:35;;;;;;;9.95;6.50;;;;;;;;;;5102479;28;20901;-88
2021/09/20 03:24:04;;;;;;;10.65;6.47;;;;;;;;;;5095780;28;20774;-87
2021/09/20 03:26:31;;;;;;;9.52;6.30;;;;;;;;;;5088937;28;20396;-87
2021/09/20 03:28:58;;;;;;;8.75;6.22;;;;;;;;;;5086264;28;20470;-87
2021/09/20 03:31:25;;;;;;;7.85;5.50;;;;;;;;;;5096321;28;20421;-88
2021/09/20 03:33:51;;;;;;;10.27;5.63;;;;;;;;;;5105749;28;20425;-88
2021/09/20 03:36:18;;;;;;;8.68;5.45;;;;;;;;;;5097019;28;20411;-87
2021/09/20 03:38:45;;;;;;;9.90;5.60;;;;;;;;;;5085165;28;20411;-88
2021/09/20 03:41:13;;;;;;;8.65;5.50;;;;;;;;;;5093115;28;20395;-87
2021/09/20 03:43:40;;;;;;;8.52;5.60;;;;;;;;;;5092062;28;20419;-88
2021/09/20 03:46:07;;;;;;;6.95;4.85;;;;;;;;;;5093557;28;20394;-87
2021/09/20 03:48:34;;;;;;;5.30;4.00;;;;;;;;;;5108747;28;20401;-87
2021/09/20 03:51:03;;;;;;;5.03;3.30;;;;;;;;;;5104685;28;20417;-87
2021/09/20 03:53:30;;;;;;;5.93;3.28;;;;;;;;;;5105603;28;20395;-87
2021/09/20 03:55:57;;;;;;;4.57;3.30;;;;;;;;;;5102164;28;20404;-86
2021/09/20 03:58:26;;;;;;;4.30;3.40;;;;;;;;;;5094219;28;20980;-87
2021/09/20 04:00:53;;;;;;;4.80;3.03;;;;;;;;;;5104511;28;20409;-88
2021/09/20 04:03:20;;;;;;;3.88;3.15;;;;;;;;;;5102629;28;20407;-87
2021/09/20 04:05:47;;;;;;;3.72;3.22;;;;;;;;;;5096621;28;20411;-88
2021/09/20 04:08:15;;;;;;;5.40;3.40;;;;;;;;;;5105635;27;20446;-88
2021/09/20 04:10:42;;;;;;;4.97;4.10;;;;;;;;;;5110704;28;20489;-87
2021/09/20 04:13:09;;;;;;;4.82;3.70;;;;;;;;;;5113329;28;20400;-87
2021/09/20 04:15:38;;;;;;;5.90;4.28;;;;;;;;;;5113116;27;20398;-87
2021/09/20 04:18:06;;;;;;;5.28;4.50;;;;;;;;;;5108020;28;20911;-87
2021/09/20 04:20:33;;;;;;;6.47;5.88;;;;;;;;;;5111283;27;20396;-88
2021/09/20 04:22:59;;;;;;;6.97;5.40;;;;;;;;;;5109245;28;20469;-87
2021/09/20 04:25:26;;;;;;;5.50;4.63;;;;;;;;;;5111641;28;20887;-88
2021/09/20 04:27:53;;;;;;;5.90;4.70;;;;;;;;;;5104610;28;20410;-88
2021/09/20 04:30:20;;;;;;;6.13;4.55;;;;;;;;;;5109997;28;20409;-87
2021/09/20 04:32:49;;;;;;;6.70;4.57;;;;;;;;;;5107452;27;20420;-88
2021/09/20 04:35:15;;;;;;;5.97;4.60;;;;;;;;;;5116215;27;20409;-88
2021/09/20 04:37:42;;;;;;;5.45;4.82;;;;;;;;;;5115225;27;20404;-86
2021/09/20 04:40:11;;;;;;;5.07;4.25;;;;;;;;;;5108960;27;20423;-87
2021/09/20 04:42:38;;;;;;;4.93;4.30;;;;;;;;;;5115121;27;20411;-88
2021/09/20 04:45:06;;;;;;;5.13;3.97;;;;;;;;;;5109922;27;20388;-87
2021/09/20 04:47:33;;;;;;;4.93;3.88;;;;;;;;;;5110997;27;20454;-88
2021/09/20 04:50:01;;;;;;;4.93;3.90;;;;;;;;;;5112432;27;20415;-89
2021/09/20 04:52:28;;;;;;;4.28;3.88;;;;;;;;;;5112149;27;20429;-89
2021/09/20 04:54:55;;;;;;;4.85;3.85;;;;;;;;;;5118289;27;20401;-86
2021/09/20 04:57:21;;;;;;;4.68;3.60;;;;;;;;;;5114368;27;20385;-89
2021/09/20 04:59:48;;;;;;;4.50;3.78;;;;;;;;;;5114185;27;20405;-85
2021/09/20 05:02:15;;;;;;;6.65;4.10;;;;;;;;;;5111642;27;20402;-89
2021/09/20 05:04:42;;;;;;;5.20;4.10;;;;;;;;;;5105110;27;20411;-89
2021/09/20 05:07:10;;;;;;;4.65;4.15;;;;;;;;;;5113179;27;20390;-88
2021/09/20 05:09:37;;;;;;;11.30;4.38;;;;;;;;;;5112640;27;20390;-88
2021/09/20 05:12:05;;;;;;;5.00;4.13;;;;;;;;;;5116079;27;20746;-89
2021/09/20 05:14:32;;;;;;;7.80;4.70;;;;;;;;;;5108113;27;20419;-84
2021/09/20 05:16:59;;;;;;;5.43;4.20;;;;;;;;;;5113157;27;20857;-88
2021/09/20 05:19:26;;;;;;;5.60;4.18;;;;;;;;;;5110084;27;20404;-88
2021/09/20 05:21:53;;;;;;;8.65;5.60;;;;;;;;;;5113024;27;20406;-89
2021/09/20 05:24:21;;;;;;;5.78;4.70;;;;;;;;;;5111059;27;20410;-88
2021/09/20 05:26:48;;;;;;;7.35;4.93;;;;;;;;;;5113821;27;20753;-88
2021/09/20 05:29:15;;;;;;;5.60;4.32;;;;;;;;;;5110419;27;20392;-88
2021/09/20 05:31:42;;;;;;;5.70;4.68;;;;;;;;;;5109516;27;20414;-88
2021/09/20 05:34:09;;;;;;;6.88;5.07;;;;;;;;;;5099424;27;20404;-87
2021/09/20 05:36:35;;;;;;;6.60;5.17;;;;;;;;;;5105920;27;20517;-87
2021/09/20 05:39:02;;;;;;;6.05;5.22;;;;;;;;;;5109396;27;20416;-87
2021/09/20 05:41:31;;;;;;;6.63;5.40;;;;;;;;;;5109082;27;20747;-86
2021/09/20 05:43:57;;;;;;;7.10;5.05;;;;;;;;;;5103012;27;20418;-86
2021/09/20 05:46:24;;;;;;;7.93;5.43;;;;;;;;;;5110537;27;20405;-87
2021/09/20 05:48:51;;;;;;;8.38;5.95;;;;;;;;;;5110023;27;20397;-86
2021/09/20 05:51:18;;;;;;;8.70;4.85;;;;;;;;;;5108198;27;20855;-86
2021/09/20 05:53:45;;;;;;;6.28;4.78;;;;;;;;;;5103220;27;20751;-86
2021/09/20 05:56:12;;;;;;;5.90;3.78;;;;;;;;;;5109516;27;20397;-87
2021/09/20 05:58:41;;;;;;;4.97;3.40;;;;;;;;;;5109424;27;20762;-87
2021/09/20 06:01:08;;;;;;;6.13;3.67;;;;;;;;;;5108002;27;20406;-87
2021/09/20 06:03:35;;;;;;;4.53;3.47;;;;;;;;;;5111799;27;20781;-86
2021/09/20 06:06:02;;;;;;;6.07;3.47;;;;;;;;;;5109177;27;20413;-87
2021/09/20 06:08:29;;;;;;;5.45;3.50;;;;;;;;;;5112369;27;20404;-87
2021/09/20 06:10:56;;;;;;;5.28;2.92;;;;;;;;;;5109242;27;20413;-86
2021/09/20 06:13:22;;;;;;;6.57;3.10;;;;;;;;;;5112282;27;20427;-87
2021/09/20 06:15:52;;;;;;;3.40;2.80;;;;;;;;;;5113016;27;20400;-87
2021/09/20 06:18:19;;;;;;;4.65;2.72;;;;;;;;;;5105458;27;20404;-87
2021/09/20 06:20:46;;;;;;;4.93;2.53;;;;;;;;;;5107682;27;20403;-87
2021/09/20 06:23:13;;;;;;;6.22;2.97;;;;;;;;;;5110592;27;20401;-87
2021/09/20 06:25:42;;;;;;;3.65;2.80;;;;;;;;;;5106767;27;20900;-87
2021/09/20 06:28:09;;;;;;;4.50;2.45;;;;;;;;;;5106076;27;20401;-86
2021/09/20 06:30:36;;;;;;;6.00;2.42;;;;;;;;;;5115915;27;20393;-87
2021/09/20 06:33:04;;;;;;;6.68;2.30;;;;;;;;;;5109550;27;20503;-87
2021/09/20 06:35:31;;;;;;;4.50;2.23;;;;;;;;;;5115847;27;20412;-86
2021/09/20 06:37:58;;;;;;;5.80;2.42;;;;;;;;;;5113144;27;20400;-87
2021/09/20 06:40:25;;;;;;;3.70;1.70;;;;;;;;;;5109268;27;20396;-86
2021/09/20 06:42:52;;;;;;;2.75;1.92;;;;;;;;;;5112011;27;20780;-87
2021/09/20 06:45:19;;;;;;;3.53;1.90;;;;;;;;;;5108985;27;20559;-87
2021/09/20 06:47:46;;;;;;;2.60;1.80;;;;;;;;;;5115971;27;20425;-87
2021/09/20 06:50:15;;;;;;;4.18;2.20;;;;;;;;;;5112355;27;20850;-87
2021/09/20 06:52:41;;;;;;;4.20;2.07;;;;;;;;;;5110160;27;20422;-86
2021/09/20 06:55:10;;;;;;;3.00;2.00;;;;;;;;;;5109816;27;20443;-86
2021/09/20 06:57:37;;;;;;;3.20;2.22;;;;;;;;;;5107424;27;20810;-86
2021/09/20 07:00:08;;;;;;;2.53;1.73;;;;;;;;;;5101665;27;20409;-87
2021/09/20 07:02:34;;;;;;;2.30;1.90;;;;;;;;;;5108522;27;20393;-87
2021/09/20 07:05:01;;;;;;;4.50;2.10;;;;;;;;;;5115817;27;20698;-87
2021/09/20 07:07:30;;;;;;;2.97;2.20;;;;;;;;;;5109251;27;20396;-86
2021/09/20 07:09:56;;;;;;;2.85;2.15;;;;;;;;;;5113099;27;20409;-86
2021/09/20 07:12:23;;;;;;;4.78;2.50;;;;;;;;;;5112442;27;20423;-87
2021/09/20 07:14:50;;;;;;;4.68;2.67;;;;;;;;;;5105379;27;20679;-87
2021/09/20 07:17:17;;;;;;;3.80;2.70;;;;;;;;;;5113845;27;20437;-87
2021/09/20 07:19:44;;;;;;;3.10;2.70;;;;;;;;;;5114708;27;20682;-87
2021/09/20 07:22:10;;;;;;;4.57;2.83;;;;;;;;;;5115176;27;20404;-87
2021/09/20 07:24:39;;;;;;;5.10;3.28;;;;;;;;;;5109022;27;20755;-87
2021/09/20 07:27:05;;;;;;;4.13;2.90;;;;;;;;;;5111012;27;20799;-87
2021/09/20 07:29:32;;;;;;;5.32;3.20;;;;;;;;;;5114105;27;20388;-87
2021/09/20 07:31:59;;;;;;;4.28;3.20;;;;;;;;;;5114258;27;20409;-86
2021/09/20 07:34:26;;;;;;;4.75;3.45;;;;;;;;;;5113811;27;20401;-87
2021/09/20 07:36:53;;;;;;;6.75;4.03;;;;;;;;;;5116610;27;20449;-86
2021/09/20 07:39:20;;;;;;;5.35;4.38;;;;;;;;;;5113962;27;20397;-87
2021/09/20 07:41:48;;;;;;;5.90;4.10;;;;;;;;;;5109695;27;20759;-87
2021/09/20 07:44:15;;;;;;;11.07;5.70;;;;;;;;;;5115891;27;20408;-87
2021/09/20 07:46:42;;;;;;;7.65;4.97;;;;;;;;;;5112950;27;20403;-87
2021/09/20 07:49:09;;;;;;;7.07;5.05;;;;;;;;;;5101691;27;20414;-87
2021/09/20 07:51:36;;;;;;;8.38;4.93;;;;;;;;;;5114902;27;20398;-87
2021/09/20 07:54:03;;;;;;;9.93;5.45;;;;;;;;;;5112701;27;20910;-87
2021/09/20 07:56:32;;;;;;;8.93;5.43;;;;;;;;;;5109926;27;20405;-87
2021/09/20 07:59:00;;;;;;;8.45;5.63;;;;;;;;;;5111308;27;20434;-86
2021/09/20 08:01:28;;;;;;;8.38;5.28;;;;;;;;;;5096080;27;20718;-87
2021/09/20 08:03:55;;;;;;;8.57;5.53;;;;;;;;;;5109703;28;20397;-87
2021/09/20 08:06:22;;;;;;;6.00;4.90;;;;;;;;;;5110292;28;20708;-87
2021/09/20 08:08:49;;;;;;;7.10;4.55;;;;;;;;;;5112304;28;20414;-86
2021/09/20 08:11:16;;;;;;;5.72;4.20;;;;;;;;;;5112981;27;20762;-87
2021/09/20 08:13:43;;;;;;;5.82;4.30;;;;;;;;;;5112455;27;20422;-87
2021/09/20 08:16:11;;;;;;;6.68;4.57;;;;;;;;;;5107038;28;20588;-87
2021/09/20 08:18:38;;;;;;;6.30;4.18;;;;;;;;;;5112495;28;20404;-87
2021/09/20 08:21:06;;;;;;;6.07;4.03;;;;;;;;;;5107386;27;20403;-87
2021/09/20 08:23:33;;;;;;;4.72;3.30;;;;;;;;;;5110334;28;20900;-86
2021/09/20 08:26:00;;;;;;;4.13;3.10;;;;;;;;;;5105349;28;20872;-87
2021/09/20 08:28:27;;;;;;;5.00;2.90;;;;;;;;;;5108890;28;20741;-86
2021/09/20 08:30:54;;;;;;;4.13;2.88;;;;;;;;;;5113736;27;21061;-87
2021/09/20 08:33:23;;;;;;;4.13;2.53;;;;;;;;;;5106970;28;20418;-87
2021/09/20 08:35:50;;;;;;;3.30;1.85;;;;;;;;;;5108334;28;20393;-87
2021/09/20 08:38:17;;;;;;;2.58;2.10;;;;;;;;;;5109415;28;20391;-87
2021/09/20 08:40:44;;;;;;;3.65;2.25;;;;;;;;;;5108505;28;20396;-86
2021/09/20 08:43:10;;;;;;;3.90;2.15;;;;;;;;;;5108823;28;20470;-87
2021/09/20 08:45:37;;;;;;;2.55;1.92;;;;;;;;;;5093616;28;20393;-87
2021/09/20 08:48:05;;;;;;;2.60;1.85;;;;;;;;;;5108104;28;20406;-80
2021/09/20 08:50:38;;;;;;;3.25;1.80;;;;;;;;;;5107860;27;20390;-87
2021/09/20 08:53:08;;;;;;;1.90;1.20;;;;;;;;;;5083273;28;20417;-87
2021/09/20 08:55:36;;;;;;;1.40;1.23;;;;;;;;;;5112090;27;20396;-87
2021/09/20 08:58:04;;;;;;;1.83;1.38;;;;;;;;;;5102799;27;20760;-87
2021/09/20 09:00:31;;;;;;;1.42;1.25;;;;;;;;;;5114621;27;20397;-87
2021/09/20 09:02:59;;;;;;;2.00;1.20;;;;;;;;;;5110633;28;20400;-87
2021/09/20 09:05:27;;;;;;;1.55;1.40;;;;;;;;;;5108138;27;20906;-86
2021/09/20 09:07:57;;;;;;;1.40;1.10;;;;;;;;;;5104949;27;20680;-87
2021/09/20 09:10:25;;;;;;;1.45;1.10;;;;;;;;;;5107046;28;20414;-87
2021/09/20 09:12:54;;;;;;;2.05;1.20;;;;;;;;;;5108651;28;20841;-87
2021/09/20 09:15:22;;;;;;;1.90;1.10;;;;;;;;;;5110742;28;20513;-87
2021/09/20 09:17:53;;;;;;;2.95;0.95;;;;;;;;;;5109500;28;20888;-87
2021/09/20 09:20:23;;;;;;;1.10;1.00;;;;;;;;;;5107258;27;20471;-87
2021/09/20 09:22:52;;;;;;;1.10;1.00;;;;;;;;;;5110640;27;20410;-87
2021/09/20 09:25:23;;;;;;;1.30;1.00;;;;;;;;;;5108018;27;20400;-86
2021/09/20 09:27:53;;;;;;;1.30;1.08;;;;;;;;;;5112501;27;20394;-87
2021/09/20 09:30:24;;;;;;;1.25;1.00;;;;;;;;;;5117201;27;20396;-87
2021/09/20 09:33:08;;;;;;;1.30;0.90;;;;;;;;;;5117495;27;20413;-87
2021/09/20 09:35:36;;;;;;;1.50;1.27;;;;;;;;;;5119658;27;20409;-87
2021/09/20 09:38:05;;;;;;;1.00;0.90;;;;;;;;;;5116097;27;20397;-87
2021/09/20 09:40:45;;;;;;;2.30;1.00;;;;;;;;;;5112220;27;20964;-87
2021/09/20 09:43:12;;;;;;;1.10;1.00;;;;;;;;;;5110940;27;20418;-87
2021/09/20 09:45:39;;;;;;;2.92;1.05;;;;;;;;;;5116247;27;20409;-87
2021/09/20 09:48:12;;;;;;;1.58;1.10;;;;;;;;;;5116288;27;20405;-87
2021/09/20 09:50:45;;;;;;;2.00;1.60;;;;;;;;;;5108615;27;20411;-87
2021/09/20 09:53:24;;;;;;;1.38;1.20;;;;;;;;;;5106257;27;21165;-87
2021/09/20 09:55:52;;;;;;;2.97;1.77;;;;;;;;;;5106483;27;20882;-86
2021/09/20 09:58:21;;;;;;;1.88;1.48;;;;;;;;;;5097651;27;20448;-87
2021/09/20 10:00:49;;;;;;;3.53;1.33;;;;;;;;;;5098401;27;20768;-88
2021/09/20 10:03:16;;;;;;;2.55;1.15;;;;;;;;;;5114213;27;20432;-87
2021/09/20 10:05:57;;;;;;;2.50;2.00;;;;;;;;;;5105055;27;20447;-87
2021/09/20 10:08:26;;;;;;;1.85;1.70;;;;;;;;;;5110285;27;20443;-86
2021/09/20 10:10:55;;;;;;;1.83;1.63;;;;;;;;;;5115771;27;20450;-86
2021/09/20 10:13:22;;;;;;;3.00;1.52;;;;;;;;;;5106702;27;20774;-86
2021/09/20 10:15:49;;;;;;;2.47;1.27;;;;;;;;;;5112637;27;20809;-86
2021/09/20 10:18:17;;;;;;;2.17;1.35;;;;;;;;;;5108739;27;20451;-86
2021/09/20 10:20:44;;;;;;;2.88;1.40;;;;;;;;;;5104321;27;20403;-86
2021/09/20 10:23:11;;;;;;;3.58;1.25;;;;;;;;;;5112038;27;20402;-86
2021/09/20 10:25:38;;;;;;;1.15;0.90;;;;;;;;;;5105932;27;20407;-87
2021/09/20 10:28:07;;;;;;;1.13;1.03;;;;;;;;;;5106548;27;20494;-88
2021/09/20 10:30:35;;;;;;;1.30;1.00;;;;;;;;;;5108728;27;20410;-85
2021/09/20 10:33:07;;;;;;;1.10;0.90;;;;;;;;;;5109429;27;20416;-85
2021/09/20 10:35:39;;;;;;;1.00;0.90;;;;;;;;;;5101054;27;20404;-85
2021/09/20 10:38:28;;;;;;;1.20;1.00;;;;;;;;;;5109946;27;20458;-86
2021/09/20 10:41:07;;;;;;;2.30;1.00;;;;;;;;;;5109069;27;20395;-86
2021/09/20 10:43:36;;;;;;;1.00;0.90;;;;;;;;;;5100602;27;20427;-85
2021/09/20 10:46:07;;;;;;;1.70;0.73;;;;;;;;;;5110027;27;20403;-88
2021/09/20 10:48:49;;;;;;;1.38;0.90;;;;;;;;;;5106720;27;20432;-87
2021/09/20 10:51:22;;;;;;;0.90;0.75;;;;;;;;;;5102973;27;20412;-87
2021/09/20 10:54:09;;;;;;;1.40;0.60;;;;;;;;;;5098125;27;20420;-87
2021/09/20 10:56:37;;;;;;;1.60;0.70;;;;;;;;;;5097917;27;20406;-87
2021/09/20 10:59:28;;;;;;;1.30;0.60;;;;;;;;;;5107170;27;20922;-87
2021/09/20 11:02:19;;;;;;;0.60;0.60;;;;;;;;;;5105994;27;20909;-87
2021/09/20 11:04:46;;;;;;;1.02;0.60;;;;;;;;;;5100082;27;20405;-87
2021/09/20 11:07:19;;;;;;;1.98;0.70;;;;;;;;;;5104208;27;20440;-87
2021/09/20 11:10:06;;;;;;;2.70;0.57;;;;;;;;;;5099565;27;20487;-82
2021/09/20 11:12:37;;;;;;;0.80;0.50;;;;;;;;;;5104656;27;20949;-87
2021/09/20 11:15:13;;;;;;;0.52;0.30;;;;;;;;;;5102951;27;20420;-87
2021/09/20 11:17:47;;;;;;;0.93;0.40;;;;;;;;;;5110371;27;20474;-87
2021/09/20 11:20:35;;;;;;;1.40;0.55;;;;;;;;;;5096013;27;20401;-88
2021/09/20 11:23:28;;;;;;;1.00;0.50;;;;;;;;;;5095299;27;20459;-86
2021/09/20 11:26:19;;;;;;;0.65;0.50;;;;;;;;;;5096959;27;20434;-87
2021/09/20 11:28:49;;;;;;;1.10;0.40;;;;;;;;;;5096364;27;20412;-87
2021/09/20 11:31:18;;;;;;;1.40;0.40;;;;;;;;;;5101935;27;20395;-87
2021/09/20 11:33:47;;;;;;;0.50;0.50;;;;;;;;;;5095741;27;20414;-87
2021/09/20 11:36:20;;;;;;;2.05;0.80;;;;;;;;;;5106738;27;20443;-87
2021/09/20 11:38:47;;;;;;;1.00;0.80;;;;;;;;;;5090011;27;20408;-87
2021/09/20 11:41:19;;;;;;;1.13;0.80;;;;;;;;;;5099135;27;20409;-86
2021/09/20 11:43:46;;;;;;;2.22;0.60;;;;;;;;;;5101276;27;20408;-87
2021/09/20 11:46:19;;;;;;;1.20;0.60;;;;;;;;;;5106989;27;20416;-87
2021/09/20 11:48:46;;;;;;;1.00;0.50;;;;;;;;;;5094919;27;20400;-86
2021/09/20 11:51:13;;;;;;;1.70;0.50;;;;;;;;;;5098729;27;20419;-87
2021/09/20 11:53:40;;;;;;;1.50;0.50;;;;;;;;;;5095740;27;20416;-87
2021/09/20 11:56:07;;;;;;;1.02;0.40;;;;;;;;;;5093062;27;20408;-86
2021/09/20 11:58:34;;;;;;;1.88;0.57;;;;;;;;;;5100599;28;20400;-87
2021/09/20 12:01:01;;;;;;;1.05;0.47;;;;;;;;;;5099679;27;20403;-88
2021/09/20 12:03:29;;;;;;;0.80;0.50;;;;;;;;;;5097083;27;20473;-86
2021/09/20 12:06:00;;;;;;;1.00;0.68;;;;;;;;;;5099272;28;20407;-87
2021/09/20 12:08:27;;;;;;;0.50;0.40;;;;;;;;;;5099553;28;20411;-88
2021/09/20 12:10:56;;;;;;;1.50;0.60;;;;;;;;;;5096734;28;20392;-88
2021/09/20 12:13:26;;;;;;;1.30;0.70;;;;;;;;;;5098127;28;20884;-88
2021/09/20 12:15:55;;;;;;;1.08;0.70;;;;;;;;;;5097277;28;20412;-88
2021/09/20 12:18:26;;;;;;;1.05;0.50;;;;;;;;;;5099374;28;20427;-87
2021/09/20 12:20:56;;;;;;;1.13;0.60;;;;;;;;;;5094880;28;20423;-88
2021/09/20 12:23:25;;;;;;;0.57;0.57;;;;;;;;;;5104375;28;20396;-88
2021/09/20 12:25:56;;;;;;;1.70;0.68;;;;;;;;;;5102837;28;20394;-88
2021/09/20 12:28:27;;;;;;;1.07;0.70;;;;;;;;;;5103347;28;20439;-87
2021/09/20 12:31:01;;;;;;;0.50;0.50;;;;;;;;;;5106927;28;20560;-88
2021/09/20 12:33:28;;;;;;;1.20;0.60;;;;;;;;;;5104995;28;20462;-87
2021/09/20 12:35:57;;;;;;;0.80;0.33;;;;;;;;;;5102422;28;20467;-87
2021/09/20 12:38:33;;;;;;;0.30;0.30;;;;;;;;;;5106509;28;20403;-87
2021/09/20 12:41:11;;;;;;;0.52;0.40;;;;;;;;;;5103781;27;20882;-88
2021/09/20 12:43:39;;;;;;;1.10;0.43;;;;;;;;;;5102448;28;20402;-88
2021/09/20 12:46:11;;;;;;;0.95;0.40;;;;;;;;;;5099058;28;20398;-87
2021/09/20 12:48:40;;;;;;;1.10;0.40;;;;;;;;;;5101768;28;20396;-87
2021/09/20 12:51:11;;;;;;;0.70;0.50;;;;;;;;;;5113444;28;20771;-87
2021/09/20 12:53:40;;;;;;;1.40;0.50;;;;;;;;;;5103845;27;20410;-87
2021/09/20 12:56:11;;;;;;;0.35;0.35;;;;;;;;;;5110099;27;20390;-87
2021/09/20 12:58:46;;;;;;;0.30;0.30;;;;;;;;;;5107652;27;20398;-87
2021/09/20 13:01:23;;;;;;;0.90;0.40;;;;;;;;;;5104110;27;20446;-88
2021/09/20 13:03:57;;;;;;;0.40;0.40;;;;;;;;;;5103680;27;20459;-88
2021/09/20 13:06:26;;;;;;;0.60;0.35;;;;;;;;;;5098515;27;20923;-88
2021/09/20 13:09:01;;;;;;;0.30;0.30;;;;;;;;;;5101515;27;20402;-87
2021/09/20 13:11:38;;;;;;;0.38;0.35;;;;;;;;;;5104493;27;20396;-87
2021/09/20 13:14:18;;;;;;;0.47;0.22;;;;;;;;;;5105163;27;20844;-87
2021/09/20 13:16:44;;;;;;;0.45;0.20;;;;;;;;;;5105085;28;20474;-87
2021/09/20 13:19:12;;;;;;;0.85;0.35;;;;;;;;;;5100128;27;20411;-87
2021/09/20 13:21:41;;;;;;;0.30;0.30;;;;;;;;;;5099529;27;20398;-87
2021/09/20 13:24:08;;;;;;;0.22;0.20;;;;;;;;;;5101837;27;20407;-87
2021/09/20 13:26:37;;;;;;;0.90;0.30;;;;;;;;;;5106740;27;20392;-87
2021/09/20 13:29:05;;;;;;;0.47;0.30;;;;;;;;;;5104556;27;20415;-87
2021/09/20 13:31:33;;;;;;;0.52;0.20;;;;;;;;;;5102011;27;20416;-87
2021/09/20 13:34:02;;;;;;;0.63;0.22;;;;;;;;;;5106967;27;20913;-87
2021/09/20 13:36:29;;;;;;;1.50;0.20;;;;;;;;;;5100820;27;20395;-86
2021/09/20 13:38:58;;;;;;;0.20;0.20;;;;;;;;;;5104171;27;20770;-87
2021/09/20 13:41:25;;;;;;;1.10;0.30;;;;;;;;;;5099113;27;20416;-86
2021/09/20 13:43:54;;;;;;;0.50;0.10;;;;;;;;;;5102709;27;20410;-87
2021/09/20 13:46:23;;;;;;;0.20;0.20;;;;;;;;;;5097042;27;20407;-87
2021/09/20 13:48:51;;;;;;;0.25;0.17;;;;;;;;;;5092846;27;20908;-87
2021/09/20 13:51:19;;;;;;;0.30;0.20;;;;;;;;;;5091465;27;20400;-84
2021/09/20 13:53:47;;;;;;;2.90;0.30;;;;;;;;;;5090687;27;20398;-84
2021/09/20 13:56:16;;;;;;;0.70;0.20;;;;;;;;;;5094041;27;20399;-83
2021/09/20 13:58:44;;;;;;;1.90;0.20;;;;;;;;;;5099234;27;20457;-86
2021/09/20 14:01:12;;;;;;;0.82;0.20;;;;;;;;;;5091656;27;20940;-85
2021/09/20 14:03:42;;;;;;;0.45;0.20;;;;;;;;;;5092296;27;20395;-86
2021/09/20 14:06:09;;;;;;;0.45;0.20;;;;;;;;;;5095424;27;21477;-85
2021/09/20 14:08:37;;;;;;;1.88;0.40;;;;;;;;;;5096351;27;20389;-84
2021/09/20 14:11:05;;;;;;;0.80;0.10;;;;;;;;;;5091742;27;20460;-85
2021/09/20 14:13:33;;;;;;;1.80;0.40;;;;;;;;;;5095495;27;20483;-85
2021/09/20 14:16:00;;;;;;;1.58;0.30;;;;;;;;;;5102169;27;20412;-84
2021/09/20 14:18:27;;;;;;;0.40;0.20;;;;;;;;;;5098072;27;20400;-84
2021/09/20 14:20:55;;;;;;;0.55;0.20;;;;;;;;;;5098999;27;20893;-86
2021/09/20 14:23:22;;;;;;;1.75;0.20;;;;;;;;;;5099645;27;20412;-85
2021/09/20 14:25:48;;;;;;;1.20;0.20;;;;;;;;;;5098527;28;20946;-86
2021/09/20 14:28:17;;;;;;;0.45;0.20;;;;;;;;;;5095478;27;21272;-86
2021/09/20 14:30:47;;;;;;;0.60;0.20;;;;;;;;;;5097362;27;20425;-85
2021/09/20 14:33:14;;;;;;;1.10;0.40;;;;;;;;;;5091744;27;20400;-86
2021/09/20 14:35:41;;;;;;;1.57;0.33;;;;;;;;;;5091616;27;21596;-86
2021/09/20 14:38:08;;;;;;;2.90;0.47;;;;;;;;;;5092736;27;21254;-85
2021/09/20 14:40:37;;;;;;;0.90;0.40;;;;;;;;;;5094166;27;20439;-85
2021/09/20 14:43:05;;;;;;;1.63;0.40;;;;;;;;;;5092829;28;20416;-83
2021/09/20 14:45:32;;;;;;;0.73;0.30;;;;;;;;;;5095693;27;20404;-85
2021/09/20 14:48:01;;;;;;;6.43;0.70;;;;;;;;;;5097202;27;21106;-87